John F Kennedy International Airport
KJFK : now visible

Aeroporto :











RITROVATECI SU...

 
LOGIN :

Iscrizione | Disclaimer

   EN    FR    IT 

 









Sommario :    VFR   VFR Marginale   IFR   IFR Intensivo   IFR Molto Intensivo
Visibilità : 
Base nubi : 
>= 8 km
>= 3000ft
5 / 8 km
1000 / 3000 ft
1500m / 5 km
500 / 1000 ft
800 / 1500m
200 / 500 ft
< 800m
< 200 ft
Simboli :   Temporali  Nebbia  Neve Forte  Precipitazioni Forti  Vento > 20 kt







- Altitudine del aeroporto : 13 ft
- Codice IATA : JFK


KJFK - John F Kennedy International

ULTIMO METAR :
  • 230351Z 28021G29KT 10SM BKN034 BKN080 BKN150 05/M02 A2954 RMK AO2 PK WND 28032/0313 SLP002 T00501017

METARs OBSOLETI :
  • 230251Z 28018G30KT 10SM FEW034 BKN039 05/00 A2952 RMK AO2 PK WND 29030/0244 SLP995 T00500000 51018
  • 230151Z 27021G28KT 10SM SCT042 06/M01 A2952 RMK AO2 PK WND 29029/0128 SLP994 T00611011

TAF KJFK
Valido dal 23 a 03 ore il 24 a 06 ore UTC


230230Z 2303/2406 28022G30KT P6SM SCT050
FM230600 29024G37KT P6SM BKN040
FM231300 30022G34KT P6SM SCT040 SCT150
FM231700 30019G30KT P6SM FEW040
FM232200 30017G26KT P6SM SKC
FM240100 30014G21KT P6SM SKC
FM240400 30012KT P6SM SKC
FIR KZNY / America del Nord



MetMap, La meteo Aeronautica in un colpo d'occhio ! - Copyright ORBIFLY Dicembre 2007 - Disclaimer

ORBIFLY MET'MAP TEAM :

Programmazione e sviluppo : Alexandra Zaïnal
Concezione e sviluppo : Baudouin d'Aumeries
Co-Programmazione e sviluppo : Marc-Olivier Méhu
Supporto tecnico e logistico : Manuel Goepfert
Aiuto per la traduzione : Arnaldo La Scala

Contatto : metmap@orbifly.com




FONTI E CREDITI :

   NOAA       Earth
Advisory